createdAt,value
2022-07-31T00:00:23.847Z,3.03
2022-07-31T00:02:51.196Z,3.80
2022-07-31T00:05:18.142Z,3.25
2022-07-31T00:07:46.432Z,3.70
2022-07-31T00:10:13.398Z,3.65
2022-07-31T00:12:40.438Z,3.53
2022-07-31T00:15:10.162Z,3.08
2022-07-31T00:17:41.717Z,3.38
2022-07-31T00:20:14.554Z,3.00
2022-07-31T00:22:43.225Z,3.00
2022-07-31T00:25:12.202Z,3.60
2022-07-31T00:27:40.348Z,3.40
2022-07-31T00:30:08.698Z,3.85
2022-07-31T00:32:35.702Z,3.22
2022-07-31T00:35:02.886Z,3.72
2022-07-31T00:37:29.728Z,3.80
2022-07-31T00:39:56.633Z,2.95
2022-07-31T00:42:25.480Z,3.10
2022-07-31T00:44:53.154Z,3.25
2022-07-31T00:47:23.887Z,3.70
2022-07-31T00:49:52.614Z,3.47
2022-07-31T00:52:20.214Z,3.38
2022-07-31T00:54:47.232Z,3.33
2022-07-31T00:57:15.262Z,3.50
2022-07-31T00:59:42.400Z,3.38
2022-07-31T01:02:09.823Z,3.30
2022-07-31T01:04:37.159Z,3.65
2022-07-31T01:07:09.013Z,4.10
2022-07-31T01:09:35.903Z,3.47
2022-07-31T01:13:05.142Z,3.40
2022-07-31T01:15:32.191Z,3.65
2022-07-31T01:18:00.347Z,3.42
2022-07-31T01:20:28.458Z,3.35
2022-07-31T01:23:23.498Z,3.55
2022-07-31T01:26:10.668Z,3.90
2022-07-31T01:29:10.373Z,3.47
2022-07-31T01:31:46.501Z,3.80
2022-07-31T01:35:17.525Z,3.67
2022-07-31T01:37:50.876Z,3.90
2022-07-31T01:40:31.565Z,3.65
2022-07-31T01:43:13.269Z,4.20
2022-07-31T01:45:44.341Z,4.10
2022-07-31T01:48:15.064Z,4.20
2022-07-31T01:50:47.205Z,4.20
2022-07-31T01:53:22.688Z,4.97
2022-07-31T01:55:56.323Z,5.28
2022-07-31T01:58:33.890Z,6.03
2022-07-31T02:01:04.077Z,7.10
2022-07-31T02:03:42.714Z,6.85
2022-07-31T02:06:13.733Z,6.65
2022-07-31T02:08:43.424Z,6.13
2022-07-31T02:11:10.630Z,6.07
2022-07-31T02:13:38.289Z,5.90
2022-07-31T02:16:06.405Z,5.63
2022-07-31T02:18:34.348Z,5.80
2022-07-31T02:21:01.382Z,6.05
2022-07-31T02:23:28.266Z,5.72
2022-07-31T02:25:55.587Z,5.80
2022-07-31T02:28:24.713Z,5.80
2022-07-31T02:30:53.066Z,5.30
2022-07-31T02:33:24.789Z,4.25
2022-07-31T02:35:55.171Z,3.97
2022-07-31T02:38:26.986Z,3.88
2022-07-31T02:40:58.848Z,3.85
2022-07-31T02:43:31.573Z,4.47
2022-07-31T02:48:27.368Z,4.82
2022-07-31T02:50:54.925Z,5.35
2022-07-31T02:53:22.287Z,6.20
2022-07-31T02:55:50.949Z,6.40
2022-07-31T02:58:17.862Z,6.47
2022-07-31T03:00:46.034Z,5.97
2022-07-31T03:03:13.060Z,6.13
2022-07-31T03:05:39.955Z,5.57
2022-07-31T03:08:06.902Z,5.80
2022-07-31T03:10:33.783Z,5.57
2022-07-31T03:13:02.939Z,5.90
2022-07-31T03:15:32.068Z,5.40
2022-07-31T03:17:59.498Z,5.32
2022-07-31T03:20:27.587Z,5.82
2022-07-31T03:22:54.665Z,5.38
2022-07-31T03:25:22.372Z,5.68
2022-07-31T03:27:56.027Z,5.85
2022-07-31T03:30:25.450Z,5.57
2022-07-31T03:32:56.360Z,6.03
2022-07-31T03:35:25.290Z,6.03
2022-07-31T03:37:52.211Z,6.22
2022-07-31T03:40:21.469Z,6.30
2022-07-31T03:42:50.313Z,5.88
2022-07-31T03:45:18.945Z,6.90
2022-07-31T03:47:45.960Z,7.15
2022-07-31T03:50:14.988Z,7.47
2022-07-31T03:52:42.167Z,6.72
2022-07-31T03:55:10.248Z,7.32
2022-07-31T03:57:38.388Z,8.05
2022-07-31T04:00:07.393Z,8.30
2022-07-31T04:02:44.628Z,9.00
2022-07-31T04:05:11.785Z,8.90
2022-07-31T04:07:38.882Z,8.88
2022-07-31T04:10:06.617Z,9.95
2022-07-31T04:12:33.630Z,10.57
2022-07-31T04:15:00.508Z,10.65
2022-07-31T04:17:27.415Z,11.82
2022-07-31T04:19:58.004Z,11.35
2022-07-31T04:22:25.423Z,12.30
2022-07-31T04:24:52.353Z,12.48
2022-07-31T04:27:19.583Z,11.93
2022-07-31T04:29:46.779Z,12.65
2022-07-31T04:32:13.715Z,12.32
2022-07-31T04:34:42.353Z,12.93
2022-07-31T04:37:09.240Z,12.52
2022-07-31T04:39:36.706Z,12.85
2022-07-31T04:42:03.891Z,12.85
2022-07-31T04:44:31.410Z,12.13
2022-07-31T04:47:06.101Z,12.85
2022-07-31T04:49:34.148Z,13.77
2022-07-31T04:52:01.274Z,13.82
2022-07-31T04:54:29.803Z,14.43
2022-07-31T04:56:56.862Z,13.43
2022-07-31T04:59:24.164Z,13.73
2022-07-31T05:02:11.269Z,14.68
2022-07-31T05:04:39.267Z,15.38
2022-07-31T05:07:06.140Z,15.75
2022-07-31T05:09:36.483Z,14.23
2022-07-31T05:12:04.592Z,16.13
2022-07-31T05:14:31.639Z,16.13
2022-07-31T05:16:58.604Z,16.58
2022-07-31T05:19:29.815Z,16.85
2022-07-31T05:22:01.802Z,16.00
2022-07-31T05:24:33.512Z,17.88
2022-07-31T05:27:04.544Z,17.30
2022-07-31T05:29:32.842Z,17.35
2022-07-31T05:32:01.116Z,18.88
2022-07-31T05:34:30.141Z,18.55
2022-07-31T05:37:02.071Z,19.35
2022-07-31T05:39:29.707Z,21.30
2022-07-31T05:41:56.814Z,20.63
2022-07-31T05:44:24.536Z,20.05
2022-07-31T05:49:18.187Z,21.25
2022-07-31T05:51:46.791Z,23.35
2022-07-31T05:54:14.300Z,24.05
2022-07-31T05:56:41.268Z,23.35
2022-07-31T05:59:08.182Z,22.50
2022-07-31T06:01:35.095Z,24.38
2022-07-31T06:04:02.720Z,26.70
2022-07-31T06:06:29.730Z,25.73
2022-07-31T06:09:00.651Z,28.45
2022-07-31T06:11:30.981Z,28.65
2022-07-31T06:13:58.385Z,29.67
2022-07-31T06:16:25.287Z,29.27
2022-07-31T06:18:53.579Z,30.00
2022-07-31T06:23:46.291Z,28.33
2022-07-31T06:26:13.401Z,30.17
2022-07-31T06:28:48.782Z,28.92
2022-07-31T06:31:25.148Z,28.40
2022-07-31T06:33:52.744Z,29.35
2022-07-31T06:36:20.034Z,28.55
2022-07-31T06:38:47.341Z,27.95
2022-07-31T06:41:32.734Z,27.63
2022-07-31T06:43:59.572Z,27.80
2022-07-31T06:46:26.542Z,27.70
2022-07-31T06:48:53.493Z,27.45
2022-07-31T06:51:30.888Z,26.30
2022-07-31T06:54:04.797Z,25.95
2022-07-31T06:56:32.752Z,26.13
2022-07-31T06:59:00.585Z,25.35
2022-07-31T07:01:28.081Z,26.85
2022-07-31T07:03:55.769Z,27.17
2022-07-31T07:06:22.877Z,25.40
2022-07-31T07:08:50.469Z,25.58
2022-07-31T07:11:17.914Z,26.00
2022-07-31T07:13:46.840Z,24.42
2022-07-31T07:16:15.123Z,24.42
2022-07-31T07:18:43.338Z,25.08
2022-07-31T07:21:10.821Z,25.55
2022-07-31T07:23:38.331Z,23.88
2022-07-31T07:26:05.881Z,25.30
2022-07-31T07:28:33.992Z,24.08
2022-07-31T07:31:02.441Z,23.40
2022-07-31T07:33:41.044Z,23.27
2022-07-31T07:36:23.498Z,24.63
2022-07-31T07:38:56.139Z,24.83
2022-07-31T07:41:26.797Z,24.20
2022-07-31T07:43:54.022Z,25.17
2022-07-31T07:46:23.066Z,25.38
2022-07-31T07:48:51.263Z,25.25
2022-07-31T07:51:19.823Z,25.10
2022-07-31T07:53:46.812Z,26.17
2022-07-31T07:56:13.912Z,27.50
2022-07-31T07:58:40.900Z,26.63
2022-07-31T08:01:08.068Z,25.10
2022-07-31T08:03:48.390Z,25.92
2022-07-31T08:06:17.473Z,25.15
2022-07-31T08:08:44.766Z,25.02
2022-07-31T08:11:17.343Z,25.50
2022-07-31T08:13:50.464Z,25.10
2022-07-31T08:16:20.265Z,25.65
2022-07-31T08:18:50.449Z,26.48
2022-07-31T08:21:17.546Z,27.13
2022-07-31T08:23:44.515Z,28.30
2022-07-31T08:26:11.679Z,28.02
2022-07-31T08:28:41.553Z,29.63
2022-07-31T08:31:17.307Z,28.73
2022-07-31T08:33:44.163Z,29.13
2022-07-31T08:36:11.064Z,28.05
2022-07-31T08:38:39.206Z,26.98
2022-07-31T08:41:06.299Z,26.70
2022-07-31T08:44:02.836Z,27.20
2022-07-31T08:46:22.115Z,25.35
2022-07-31T08:48:53.505Z,24.60
2022-07-31T08:51:23.743Z,22.98
2022-07-31T08:53:52.020Z,21.75
2022-07-31T08:56:20.727Z,22.17
2022-07-31T08:58:47.625Z,21.30
2022-07-31T09:01:15.146Z,20.25
2022-07-31T09:03:42.621Z,19.95
2022-07-31T09:06:09.648Z,19.35
2022-07-31T09:08:37.832Z,18.83
2022-07-31T09:11:14.285Z,18.02
2022-07-31T09:14:01.949Z,18.88
2022-07-31T09:16:31.321Z,20.08
2022-07-31T09:19:52.956Z,19.65
2022-07-31T09:21:52.665Z,18.95
2022-07-31T09:24:36.949Z,18.67
2022-07-31T09:27:09.586Z,19.08
2022-07-31T09:29:41.530Z,17.00
2022-07-31T09:32:20.200Z,16.90
2022-07-31T09:34:48.626Z,16.75
2022-07-31T09:37:19.511Z,16.10
2022-07-31T09:39:55.255Z,15.60
2022-07-31T09:42:38.201Z,15.90
2022-07-31T09:45:25.894Z,14.27
2022-07-31T09:48:15.272Z,15.65
2022-07-31T09:50:55.179Z,15.77
2022-07-31T09:53:22.528Z,14.45
2022-07-31T09:55:54.868Z,14.18
2022-07-31T09:58:23.477Z,15.43
2022-07-31T10:00:53.728Z,16.92
2022-07-31T10:03:21.592Z,16.70
2022-07-31T10:05:48.943Z,16.42
2022-07-31T10:08:17.628Z,16.33
2022-07-31T10:10:45.286Z,16.30
2022-07-31T10:13:17.819Z,16.10
2022-07-31T10:15:47.425Z,16.45
2022-07-31T10:18:19.248Z,15.52
2022-07-31T10:21:05.775Z,14.73
2022-07-31T10:23:36.411Z,15.82
2022-07-31T10:26:03.338Z,14.40
2022-07-31T10:28:30.706Z,15.23
2022-07-31T10:30:58.831Z,15.02
2022-07-31T10:33:43.675Z,12.98
2022-07-31T10:36:20.882Z,14.30
2022-07-31T10:39:31.338Z,13.98
2022-07-31T10:42:34.146Z,13.05
2022-07-31T10:45:11.370Z,11.70
2022-07-31T10:47:38.453Z,10.32
2022-07-31T10:50:06.992Z,8.82
2022-07-31T10:52:37.931Z,8.68
2022-07-31T10:55:21.848Z,8.18
2022-07-31T10:57:56.797Z,7.75
2022-07-31T11:00:30.031Z,8.10
2022-07-31T11:02:57.275Z,8.15
2022-07-31T11:05:25.968Z,7.88
2022-07-31T11:08:05.803Z,8.50
2022-07-31T11:10:34.997Z,10.50
2022-07-31T11:13:08.156Z,10.93
2022-07-31T11:15:37.504Z,10.90
2022-07-31T11:18:25.765Z,12.15
2022-07-31T11:21:22.691Z,13.70
2022-07-31T11:23:55.969Z,16.25
2022-07-31T11:26:33.508Z,17.00
2022-07-31T11:30:00.561Z,14.40
2022-07-31T11:32:18.102Z,13.77
2022-07-31T11:34:53.958Z,13.45
2022-07-31T11:37:37.505Z,12.95
2022-07-31T11:40:14.000Z,12.20
2022-07-31T11:42:46.321Z,10.90
2022-07-31T11:45:16.859Z,10.15
2022-07-31T11:48:11.532Z,9.60
2022-07-31T11:50:42.287Z,8.60
2022-07-31T11:53:09.468Z,9.07
2022-07-31T11:55:56.825Z,8.35
2022-07-31T11:58:25.915Z,7.97
2022-07-31T12:00:56.063Z,7.95
2022-07-31T12:03:31.245Z,8.60
2022-07-31T12:05:58.680Z,9.75
2022-07-31T12:08:27.065Z,9.40
2022-07-31T12:10:55.967Z,7.63
2022-07-31T12:13:24.920Z,8.27
2022-07-31T12:16:05.872Z,7.60
2022-07-31T12:18:46.915Z,7.78
2022-07-31T12:21:14.712Z,6.82
2022-07-31T12:23:50.201Z,6.55
2022-07-31T12:26:32.203Z,5.43
2022-07-31T12:29:13.143Z,6.30
2022-07-31T12:31:52.518Z,5.60
2022-07-31T12:34:36.313Z,5.95
2022-07-31T12:37:09.409Z,5.63
2022-07-31T12:39:53.703Z,6.20
2022-07-31T12:42:41.161Z,6.30
2022-07-31T12:45:19.732Z,6.00
2022-07-31T12:47:52.078Z,4.95
2022-07-31T12:50:23.775Z,4.90
2022-07-31T12:52:50.800Z,4.57
2022-07-31T12:55:18.181Z,4.30
2022-07-31T12:57:47.892Z,3.95
2022-07-31T13:00:23.532Z,3.70
2022-07-31T13:02:52.220Z,4.43
2022-07-31T13:05:19.728Z,4.25
2022-07-31T13:07:46.888Z,3.95
2022-07-31T13:10:14.908Z,4.05
2022-07-31T13:12:50.506Z,4.13
2022-07-31T13:15:19.929Z,3.92
2022-07-31T13:17:50.478Z,4.57
2022-07-31T13:20:18.811Z,5.25
2022-07-31T13:22:45.750Z,5.10
2022-07-31T13:25:13.183Z,6.05
2022-07-31T13:27:41.491Z,5.65
2022-07-31T13:30:10.791Z,6.38
2022-07-31T13:32:37.766Z,6.95
2022-07-31T13:35:26.364Z,7.15
2022-07-31T13:37:53.836Z,6.38
2022-07-31T13:40:40.918Z,6.13
2022-07-31T13:43:08.060Z,4.25
2022-07-31T13:45:35.267Z,5.40
2022-07-31T13:48:04.384Z,6.40
2022-07-31T13:50:32.535Z,6.28
2022-07-31T13:52:59.476Z,7.70
2022-07-31T13:55:26.638Z,7.47
2022-07-31T13:57:53.610Z,7.03
2022-07-31T14:00:27.032Z,6.30
2022-07-31T14:02:53.954Z,7.07
2022-07-31T14:05:20.970Z,6.32
2022-07-31T14:07:51.977Z,6.22
2022-07-31T14:10:21.038Z,5.47
2022-07-31T14:12:48.835Z,5.72
2022-07-31T14:15:18.100Z,5.60
2022-07-31T14:17:45.345Z,5.93
2022-07-31T14:20:13.489Z,5.85
2022-07-31T14:22:41.404Z,5.75
2022-07-31T14:25:12.318Z,6.10
2022-07-31T14:27:40.005Z,6.25
2022-07-31T14:30:10.762Z,6.50
2022-07-31T14:32:37.791Z,7.13
2022-07-31T14:35:08.343Z,7.35
2022-07-31T14:37:36.086Z,7.30
2022-07-31T14:40:06.477Z,7.95
2022-07-31T14:42:33.474Z,8.15
2022-07-31T14:45:02.989Z,8.50
2022-07-31T14:47:31.735Z,9.15
2022-07-31T14:50:09.647Z,8.82
2022-07-31T14:52:37.799Z,9.60
2022-07-31T14:55:05.808Z,9.70
2022-07-31T14:57:32.870Z,9.60
2022-07-31T14:59:59.975Z,10.82
2022-07-31T15:02:26.892Z,11.57
2022-07-31T15:04:54.506Z,12.00
2022-07-31T15:07:43.614Z,11.20
2022-07-31T15:10:11.102Z,10.60
2022-07-31T15:12:38.870Z,10.25
2022-07-31T15:15:07.778Z,10.40
2022-07-31T15:17:34.717Z,10.73
2022-07-31T15:20:01.632Z,11.93
2022-07-31T15:22:28.552Z,12.05
2022-07-31T15:24:55.535Z,11.77
2022-07-31T15:27:22.580Z,10.40
2022-07-31T15:30:04.984Z,9.38
2022-07-31T15:32:39.290Z,9.02
2022-07-31T15:35:09.486Z,8.70
2022-07-31T15:37:42.074Z,8.93
2022-07-31T15:40:12.098Z,8.32
2022-07-31T15:42:43.013Z,8.40
2022-07-31T15:45:13.419Z,7.82
2022-07-31T15:47:42.726Z,6.65
2022-07-31T15:50:14.439Z,7.50
2022-07-31T15:52:42.664Z,7.50
2022-07-31T15:55:10.330Z,6.75
2022-07-31T15:57:38.087Z,7.18
2022-07-31T16:00:09.474Z,7.10
2022-07-31T16:02:37.429Z,6.65
2022-07-31T16:05:12.144Z,7.18
2022-07-31T16:08:32.589Z,7.05
2022-07-31T16:10:35.878Z,6.63
2022-07-31T16:13:02.883Z,6.32
2022-07-31T16:15:29.786Z,5.95
2022-07-31T16:17:56.682Z,6.53
2022-07-31T16:20:26.226Z,6.60
2022-07-31T16:23:03.339Z,6.55
2022-07-31T16:25:34.835Z,6.05
2022-07-31T16:28:03.754Z,6.15
2022-07-31T16:30:31.466Z,6.25
2022-07-31T16:32:58.393Z,6.63
2022-07-31T16:35:26.358Z,6.13
2022-07-31T16:37:54.346Z,6.35
2022-07-31T16:40:29.684Z,6.15
2022-07-31T16:43:49.694Z,6.25
2022-07-31T16:45:56.464Z,6.05
2022-07-31T16:48:23.440Z,5.97
2022-07-31T16:50:54.238Z,6.38
2022-07-31T16:54:09.936Z,5.95
2022-07-31T16:56:15.303Z,5.97
2022-07-31T16:58:44.065Z,6.03
2022-07-31T17:01:59.402Z,6.28
2022-07-31T17:04:03.895Z,6.35
2022-07-31T17:06:38.776Z,7.10
2022-07-31T17:09:16.129Z,7.47
2022-07-31T17:11:50.252Z,7.75
2022-07-31T17:14:19.482Z,6.88
2022-07-31T17:16:48.820Z,8.35
2022-07-31T17:19:42.544Z,7.80
2022-07-31T17:22:11.436Z,7.22
2022-07-31T17:24:39.532Z,9.32
2022-07-31T17:27:08.473Z,7.05
2022-07-31T17:29:37.490Z,7.90
2022-07-31T17:32:05.033Z,7.20
2022-07-31T17:34:31.956Z,7.15
2022-07-31T17:36:58.889Z,7.10
2022-07-31T17:39:30.374Z,6.70
2022-07-31T17:41:58.524Z,7.20
2022-07-31T17:44:25.624Z,7.38
2022-07-31T17:46:52.723Z,6.97
2022-07-31T17:49:20.800Z,7.45
2022-07-31T17:51:58.825Z,8.05
2022-07-31T17:54:31.743Z,7.53
2022-07-31T17:57:02.521Z,7.57
2022-07-31T17:59:29.597Z,8.00
2022-07-31T18:02:03.264Z,7.47
2022-07-31T18:04:33.948Z,8.15
2022-07-31T18:07:04.186Z,7.53
2022-07-31T18:09:31.484Z,8.07
2022-07-31T18:11:58.679Z,7.68
2022-07-31T18:14:26.040Z,7.45
2022-07-31T18:16:54.249Z,7.75
2022-07-31T18:19:21.972Z,7.57
2022-07-31T18:21:50.491Z,8.30
2022-07-31T18:24:17.794Z,8.13
2022-07-31T18:26:45.010Z,8.43
2022-07-31T18:29:12.008Z,7.95
2022-07-31T18:31:39.163Z,7.90
2022-07-31T18:34:07.027Z,7.57
2022-07-31T18:36:34.915Z,7.47
2022-07-31T18:39:02.321Z,7.63
2022-07-31T18:41:29.821Z,7.50
2022-07-31T18:43:57.759Z,7.82
2022-07-31T18:46:25.046Z,7.80
2022-07-31T18:48:56.710Z,7.45
2022-07-31T18:51:28.575Z,7.60
2022-07-31T18:53:56.391Z,7.70
2022-07-31T18:56:24.947Z,7.65
2022-07-31T18:58:53.429Z,8.48
2022-07-31T19:01:23.565Z,8.15
2022-07-31T19:03:51.577Z,8.10
2022-07-31T19:06:19.287Z,8.25
2022-07-31T19:08:49.299Z,8.15
2022-07-31T19:11:16.224Z,7.90
2022-07-31T19:13:43.144Z,8.45
2022-07-31T19:16:10.111Z,8.90
2022-07-31T19:18:40.191Z,9.05
2022-07-31T19:21:23.453Z,8.52
2022-07-31T19:23:55.866Z,8.82
2022-07-31T19:26:23.021Z,8.73
2022-07-31T19:28:49.948Z,8.68
2022-07-31T19:31:16.870Z,9.15
2022-07-31T19:33:43.743Z,8.85
2022-07-31T19:36:14.303Z,9.07
2022-07-31T19:38:44.279Z,9.85
2022-07-31T19:41:12.481Z,9.45
2022-07-31T19:43:39.353Z,9.40
2022-07-31T19:46:11.680Z,10.02
2022-07-31T19:48:43.064Z,11.10
2022-07-31T19:51:11.593Z,10.07
2022-07-31T19:53:39.329Z,11.52
2022-07-31T19:56:06.671Z,11.00
2022-07-31T19:58:35.869Z,11.30
2022-07-31T20:01:07.043Z,10.45
2022-07-31T20:03:36.321Z,10.15
2022-07-31T20:06:05.576Z,10.82
2022-07-31T20:08:33.818Z,10.90
2022-07-31T20:11:03.939Z,12.32
2022-07-31T20:13:37.699Z,11.38
2022-07-31T20:16:05.069Z,11.70
2022-07-31T20:18:32.133Z,12.02
2022-07-31T20:21:04.030Z,11.88
2022-07-31T20:23:34.252Z,12.57
2022-07-31T20:26:01.479Z,12.48
2022-07-31T20:28:28.428Z,11.68
2022-07-31T20:30:55.608Z,12.30
2022-07-31T20:33:22.547Z,12.80
2022-07-31T20:35:50.519Z,12.82
2022-07-31T20:38:20.513Z,12.73
2022-07-31T20:40:53.897Z,11.93
2022-07-31T20:43:28.094Z,12.20
2022-07-31T20:45:59.661Z,13.85
2022-07-31T20:48:34.876Z,13.23
2022-07-31T20:51:04.520Z,13.00
2022-07-31T20:53:32.076Z,13.38
2022-07-31T20:55:59.450Z,13.73
2022-07-31T20:58:26.774Z,13.43
2022-07-31T21:00:54.366Z,12.45
2022-07-31T21:03:21.927Z,12.50
2022-07-31T21:05:49.444Z,13.68
2022-07-31T21:08:16.966Z,13.45
2022-07-31T21:10:44.878Z,12.95
2022-07-31T21:13:12.075Z,14.10
2022-07-31T21:15:42.526Z,13.10
2022-07-31T21:18:21.617Z,12.55
2022-07-31T21:20:53.509Z,13.60
2022-07-31T21:23:26.106Z,13.00
2022-07-31T21:25:56.344Z,12.77
2022-07-31T21:28:25.883Z,14.15
2022-07-31T21:30:56.186Z,12.80
2022-07-31T21:33:28.027Z,13.95
2022-07-31T21:35:55.557Z,14.90
2022-07-31T21:38:23.789Z,13.85
2022-07-31T21:40:51.303Z,14.60
2022-07-31T21:43:22.234Z,13.48
2022-07-31T21:45:57.529Z,14.00
2022-07-31T21:48:30.415Z,14.98
2022-07-31T21:50:58.696Z,14.38
2022-07-31T21:53:25.657Z,14.25
2022-07-31T21:55:52.776Z,15.23
2022-07-31T21:58:20.069Z,13.40
2022-07-31T22:00:47.207Z,14.80
2022-07-31T22:03:14.202Z,13.52
2022-07-31T22:05:59.689Z,14.57
2022-07-31T22:08:26.619Z,15.38
2022-07-31T22:10:53.764Z,15.38
2022-07-31T22:13:21.135Z,14.25
2022-07-31T22:15:51.583Z,14.85
2022-07-31T22:18:36.802Z,13.50
2022-07-31T22:21:07.999Z,11.88
2022-07-31T22:23:35.996Z,11.00
2022-07-31T22:26:03.488Z,10.60
2022-07-31T22:28:30.995Z,11.02
2022-07-31T22:30:58.443Z,9.73
2022-07-31T22:33:26.309Z,8.75
2022-07-31T22:35:59.170Z,8.63
2022-07-31T22:38:29.243Z,8.95
2022-07-31T22:40:57.153Z,9.43
2022-07-31T22:44:12.551Z,9.50
2022-07-31T22:46:15.083Z,9.13
2022-07-31T22:48:42.321Z,8.85
2022-07-31T22:51:12.777Z,9.50
2022-07-31T22:56:09.453Z,8.77
2022-07-31T22:58:36.364Z,9.10
2022-07-31T23:01:03.492Z,9.23
2022-07-31T23:03:30.401Z,9.07
2022-07-31T23:06:03.102Z,9.18
2022-07-31T23:08:44.318Z,8.30
2022-07-31T23:11:11.170Z,9.90
2022-07-31T23:13:39.866Z,9.15
2022-07-31T23:16:06.846Z,9.30
2022-07-31T23:18:33.829Z,9.18
2022-07-31T23:21:00.893Z,10.02
2022-07-31T23:23:27.751Z,10.23
2022-07-31T23:25:54.595Z,10.15
2022-07-31T23:28:21.522Z,10.32
2022-07-31T23:30:48.397Z,9.77
2022-07-31T23:33:16.509Z,10.65
2022-07-31T23:35:44.257Z,10.60
2022-07-31T23:38:12.157Z,9.90
2022-07-31T23:40:39.051Z,9.27
2022-07-31T23:43:05.979Z,9.70
2022-07-31T23:45:33.011Z,9.10
2022-07-31T23:47:59.982Z,9.07
2022-07-31T23:50:27.639Z,8.13
2022-07-31T23:52:54.494Z,7.75
2022-07-31T23:55:21.517Z,7.15
2022-07-31T23:57:48.572Z,7.25
